Time;durP1;ratioP1;P1;durP2;ratioP2;P2;SDS_P1;SDS_P2;PMS_P1;PMS_P2;Temp;Humidity;BMP_temperature;BMP_pressure;BME280_temperature;BME280_humidity;BME280_pressure;Samples;Min_cycle;Max_cycle;Signal;HPM_P1;HPM_P2
2022/04/07 00:01:48;;;;;;;0.57;0.57;;;;;;;9.28;80.26;98911.63;5214289;28;20068;-78
2022/04/07 00:04:19;;;;;;;;;;;;;;;9.43;79.88;98915.22;5211106;28;20083;-77
2022/04/07 00:06:55;;;;;;;0.40;0.40;;;;;;;9.50;79.02;98916.63;5231748;28;19947;-78
2022/04/07 00:09:26;;;;;;;0.50;0.50;;;;;;;9.45;79.99;98909.00;5233680;28;20044;-78
2022/04/07 00:11:56;;;;;;;0.40;0.40;;;;;;;9.41;79.41;98912.69;5231608;28;20037;-78
2022/04/07 00:14:27;;;;;;;0.60;0.60;;;;;;;9.40;79.13;98911.00;5215529;28;20024;-78
2022/04/07 00:16:59;;;;;;;2.90;1.95;;;;;;;9.42;79.29;98906.53;5199561;28;20080;-78
2022/04/07 00:19:29;;;;;;;0.50;0.50;;;;;;;9.30;78.98;98899.28;5210877;28;20419;-78
2022/04/07 00:22:00;;;;;;;1.52;0.65;;;;;;;9.38;79.04;98907.59;5239294;28;20044;-78
2022/04/07 00:24:30;;;;;;;0.30;0.30;;;;;;;9.36;77.53;98887.66;5211246;28;20043;-78
2022/04/07 00:27:01;;;;;;;0.30;0.30;;;;;;;9.41;77.74;98880.44;5212266;28;20067;-78
2022/04/07 00:29:33;;;;;;;0.32;0.32;;;;;;;9.32;77.53;98878.28;5213421;28;20123;-78
2022/04/07 00:32:05;;;;;;;0.52;0.52;;;;;;;9.30;76.85;98883.59;5211745;28;20033;-78
2022/04/07 00:34:44;;;;;;;0.68;0.68;;;;;;;9.37;76.76;98876.28;5246240;22;20142;-82
2022/04/07 01:41:52;;;;;;;0.40;0.40;;;;;;;9.49;75.58;98757.84;5211941;28;20087;-81
2022/04/07 02:12:58;;;;;;;0.30;0.30;;;;;;;9.51;76.70;98726.34;5161624;28;20177;-82
2022/04/07 02:17:34;;;;;;;0.30;0.30;;;;;;;9.56;76.53;98712.06;5142212;28;20725;-82
2022/04/07 02:30:55;;;;;;;0.20;0.20;;;;;;;9.52;75.24;98689.59;5127889;28;20046;-82
2022/04/07 02:35:20;;;;;;;4.07;0.75;;;;;;;9.50;75.55;98695.84;5128503;28;20426;-82
2022/04/07 02:39:41;;;;;;;0.30;0.30;;;;;;;9.57;75.53;98686.72;5075457;29;20274;-82
2022/04/07 02:44:24;;;;;;;0.30;0.30;;;;;;;9.58;75.29;98673.56;4995782;29;20152;-82
2022/04/07 02:49:05;;;;;;;;;;;;;;;;;;;;;
2022/04/07 02:53:24;;;;;;;0.30;0.30;;;;;;;9.59;75.30;98654.28;4923808;30;20406;-82
2022/04/07 03:15:09;;;;;;;0.30;0.30;;;;;;;9.49;75.26;98605.16;5010854;29;20072;-82
2022/04/07 03:32:48;;;;;;;;;;;;;;;;;;;;;
2022/04/07 03:37:14;;;;;;;0.30;0.30;;;;;;;9.55;75.11;98555.06;5037483;29;20444;-82
2022/04/07 03:41:23;;;;;;;0.63;0.63;;;;;;;9.61;75.24;98541.63;5050337;29;20203;-82
2022/04/07 03:44:18;;;;;;;0.43;0.43;;;;;;;9.62;75.65;98556.41;5088987;28;20058;-82
2022/04/07 03:46:51;;;;;;;0.30;0.30;;;;;;;9.68;75.19;98537.72;5128510;28;20094;-83
2022/04/07 03:49:36;;;;;;;0.30;0.30;;;;;;;9.61;75.64;98539.00;5212109;28;20044;-83
2022/04/07 03:52:43;;;;;;;0.30;0.30;;;;;;;9.64;75.43;98540.59;5202664;28;20054;-81
2022/04/07 03:55:40;;;;;;;;;;;;;;;;;;;;;
2022/04/07 03:59:13;;;;;;;0.30;0.30;;;;;;;9.66;75.65;98516.00;5159080;28;20050;-82
2022/04/07 04:01:55;;;;;;;0.50;0.50;;;;;;;9.70;75.73;98509.69;5175754;28;20862;-82
2022/04/07 04:04:55;;;;;;;0.30;0.30;;;;;;;9.61;76.07;98497.13;5138960;28;20069;-83
2022/04/07 04:08:22;;;;;;;0.30;0.30;;;;;;;9.62;76.01;98496.19;5147568;28;20060;-83
2022/04/07 04:11:37;;;;;;;0.30;0.30;;;;;;;9.61;76.15;98491.88;5170061;28;20114;-85
2022/04/07 04:18:38;;;;;;;0.30;0.30;;;;;;;9.69;76.12;98481.81;5075430;29;20094;-86
2022/04/07 04:21:47;;;;;;;0.40;0.40;;;;;;;9.63;77.71;98471.66;5076661;28;20306;-82
2022/04/07 04:24:19;;;;;;;0.30;0.30;;;;;;;9.69;77.19;98455.63;5160613;28;21126;-83
2022/04/07 04:26:59;;;;;;;1.85;1.00;;;;;;;9.75;77.74;98460.47;5146362;28;20038;-85
2022/04/07 04:29:30;;;;;;;0.30;0.30;;;;;;;9.68;78.45;98448.69;5182530;28;20048;-84
2022/04/07 04:32:21;;;;;;;0.50;0.50;;;;;;;9.65;78.55;98437.56;5238195;28;20092;-83
2022/04/07 04:34:52;;;;;;;0.52;0.52;;;;;;;9.68;78.14;98446.06;5241479;28;20040;-83
2022/04/07 04:37:26;;;;;;;0.52;0.52;;;;;;;9.72;78.13;98433.63;5240828;27;20050;-80
2022/04/07 04:39:56;;;;;;;0.40;0.40;;;;;;;9.70;78.03;98431.13;5259218;28;20047;-81
2022/04/07 04:42:27;;;;;;;0.30;0.30;;;;;;;9.73;78.01;98420.44;5279478;27;20044;-81
2022/04/07 04:44:57;;;;;;;0.30;0.30;;;;;;;9.77;77.97;98418.47;5251504;27;20031;-82
2022/04/07 04:47:28;;;;;;;0.47;0.47;;;;;;;9.82;77.96;98407.72;5277685;27;20083;-81
2022/04/07 04:50:05;;;;;;;0.30;0.30;;;;;;;9.76;78.93;98414.19;5244201;28;20121;-82
2022/04/07 04:52:43;;;;;;;1.58;1.48;;;;;;;9.69;79.28;98399.78;5237622;28;20544;-84
2022/04/07 04:55:14;;;;;;;0.40;0.40;;;;;;;9.64;79.67;98394.81;5253127;28;20044;-82
2022/04/07 04:57:45;;;;;;;0.30;0.30;;;;;;;9.76;79.64;98381.00;5253174;28;20030;-82
2022/04/07 05:00:22;;;;;;;0.30;0.30;;;;;;;9.74;78.68;98385.47;5259472;28;20050;-83
2022/04/07 05:03:09;;;;;;;0.30;0.30;;;;;;;9.76;79.24;98375.75;5261390;27;20047;-84
2022/04/07 05:05:40;;;;;;;0.30;0.30;;;;;;;9.74;79.40;98367.13;5282826;27;20032;-83
2022/04/07 05:08:11;;;;;;;0.30;0.30;;;;;;;9.68;80.27;98354.44;5261412;28;20031;-83
2022/04/07 05:10:47;;;;;;;0.40;0.40;;;;;;;9.64;79.40;98358.16;5252908;27;20043;-84
2022/04/07 05:13:18;;;;;;;0.30;0.30;;;;;;;9.63;79.99;98345.16;5268198;28;20262;-84
2022/04/07 05:15:49;;;;;;;0.30;0.30;;;;;;;9.66;79.79;98345.81;5260288;28;20126;-83
2022/04/07 05:18:20;;;;;;;0.30;0.30;;;;;;;9.64;80.33;98342.44;5255429;28;20038;-83
2022/04/07 05:20:56;;;;;;;7.97;1.38;;;;;;;9.67;79.94;98331.78;5258868;27;20085;-84
2022/04/07 05:23:30;;;;;;;0.30;0.30;;;;;;;9.62;80.16;98331.25;5270669;28;20019;-84
2022/04/07 05:26:12;;;;;;;0.40;0.40;;;;;;;9.69;79.22;98335.16;5244613;28;20059;-84
2022/04/07 05:28:51;;;;;;;0.30;0.30;;;;;;;9.67;79.30;98323.94;5260653;28;20628;-82
2022/04/07 05:31:21;;;;;;;1.20;0.50;;;;;;;9.68;79.87;98322.16;5249450;28;20126;-83
2022/04/07 05:33:52;;;;;;;0.30;0.30;;;;;;;9.60;79.78;98309.56;5255557;28;20119;-82
2022/04/07 05:36:23;;;;;;;0.25;0.25;;;;;;;9.64;79.41;98312.81;5277285;28;20753;-83
2022/04/07 05:38:53;;;;;;;0.30;0.30;;;;;;;9.61;79.53;98319.09;5238549;28;20036;-83
2022/04/07 05:41:24;;;;;;;0.22;0.22;;;;;;;9.64;79.79;98300.56;5263088;28;20040;-82
2022/04/07 05:43:57;;;;;;;0.30;0.30;;;;;;;9.67;79.21;98310.03;5256231;28;20024;-84
2022/04/07 05:46:28;;;;;;;0.30;0.30;;;;;;;9.76;79.05;98299.81;5251014;28;20035;-83
2022/04/07 05:48:59;;;;;;;0.32;0.32;;;;;;;9.72;79.09;98303.53;5266192;27;20019;-83
2022/04/07 05:51:34;;;;;;;0.30;0.30;;;;;;;9.68;79.11;98288.97;5269931;28;20036;-84
2022/04/07 05:54:05;;;;;;;3.13;2.30;;;;;;;9.61;80.03;98308.63;5268853;22;20045;-81
2022/04/07 05:56:35;;;;;;;0.38;0.38;;;;;;;9.60;80.33;98304.31;5219402;28;20037;-82
2022/04/07 05:59:06;;;;;;;0.30;0.30;;;;;;;9.56;81.46;98293.19;5218718;28;20464;-80
2022/04/07 06:01:39;;;;;;;0.30;0.30;;;;;;;9.60;81.42;98273.72;5209095;28;20052;-81
2022/04/07 06:04:10;;;;;;;0.30;0.30;;;;;;;9.63;81.34;98277.94;5203649;28;20056;-79
2022/04/07 06:06:40;;;;;;;0.30;0.30;;;;;;;9.49;82.03;98270.97;5201535;28;20072;-80
2022/04/07 06:09:11;;;;;;;0.30;0.30;;;;;;;9.52;81.85;98246.34;5185702;28;20143;-79
2022/04/07 06:11:42;;;;;;;0.40;0.40;;;;;;;9.49;81.79;98257.00;5217056;28;20036;-79
2022/04/07 06:14:12;;;;;;;0.40;0.40;;;;;;;9.40;81.85;98267.09;5215401;28;20033;-81
2022/04/07 06:16:43;;;;;;;0.30;0.30;;;;;;;9.41;81.22;98252.25;5210411;28;20503;-79
2022/04/07 06:19:13;;;;;;;0.30;0.30;;;;;;;9.48;80.81;98255.31;5213723;28;20404;-79
2022/04/07 06:21:44;;;;;;;0.30;0.30;;;;;;;9.39;81.05;98231.41;5209195;28;20045;-79
2022/04/07 06:24:14;;;;;;;0.75;0.75;;;;;;;9.26;81.41;98210.38;5216997;28;20039;-80
2022/04/07 06:26:45;;;;;;;0.55;0.55;;;;;;;9.29;82.11;98212.81;5233598;28;20041;-79
2022/04/07 06:29:16;;;;;;;0.30;0.30;;;;;;;9.39;81.84;98220.94;5211635;28;20508;-78
2022/04/07 06:31:46;;;;;;;0.68;0.68;;;;;;;9.42;82.21;98186.72;5187007;28;20512;-78
2022/04/07 06:34:17;;;;;;;0.30;0.30;;;;;;;9.50;81.63;98178.41;5274120;22;20044;-79
2022/04/07 06:36:47;;;;;;;0.30;0.30;;;;;;;9.51;82.39;98160.91;5264667;28;20059;-79
2022/04/07 06:39:18;;;;;;;0.40;0.40;;;;;;;9.55;81.85;98159.75;5287343;28;20040;-79
2022/04/07 06:41:48;;;;;;;0.50;0.50;;;;;;;9.50;82.07;98149.63;5267778;27;20307;-79
2022/04/07 06:44:19;;;;;;;0.40;0.40;;;;;;;9.49;82.38;98141.84;5274818;27;20061;-79
2022/04/07 06:46:50;;;;;;;0.30;0.30;;;;;;;9.56;81.85;98132.66;5305113;27;20300;-79
2022/04/07 06:49:21;;;;;;;0.30;0.30;;;;;;;9.59;80.98;98129.84;5269157;27;20594;-79
2022/04/07 06:51:51;;;;;;;0.60;0.60;;;;;;;9.57;81.91;98113.38;5293892;27;20035;-79
2022/04/07 06:54:22;;;;;;;0.30;0.30;;;;;;;9.63;80.87;98105.13;5270027;27;20050;-80
2022/04/07 06:56:55;;;;;;;0.30;0.30;;;;;;;9.56;80.64;98089.00;5293046;27;20103;-80
2022/04/07 06:59:25;;;;;;;1.77;0.65;;;;;;;9.65;80.50;98082.31;5282348;27;20622;-79
2022/04/07 07:02:03;;;;;;;0.30;0.30;;;;;;;9.66;80.52;98068.28;5279925;27;20043;-79
2022/04/07 07:04:33;;;;;;;0.38;0.38;;;;;;;9.82;80.06;98054.19;5281348;27;20038;-79
2022/04/07 07:07:05;;;;;;;0.30;0.30;;;;;;;9.83;79.35;98056.72;5275558;27;20884;-79
2022/04/07 07:09:35;;;;;;;0.40;0.40;;;;;;;9.75;80.03;98044.13;5281394;27;20130;-80
2022/04/07 07:12:09;;;;;;;0.30;0.30;;;;;;;9.82;80.19;98046.31;5282620;27;20116;-80
2022/04/07 07:14:39;;;;;;;;;;;;;;;9.76;79.87;98017.00;5265732;27;20061;-80
2022/04/07 07:17:10;;;;;;;0.30;0.30;;;;;;;9.81;79.96;98019.31;5300289;27;19915;-79
2022/04/07 07:19:41;;;;;;;0.30;0.30;;;;;;;9.79;79.61;98004.66;5284631;27;20044;-79
2022/04/07 07:22:11;;;;;;;0.30;0.30;;;;;;;9.85;79.66;97985.88;5266774;27;20145;-80
2022/04/07 07:24:44;;;;;;;0.50;0.50;;;;;;;9.92;79.89;98002.88;5306204;27;20055;-79
2022/04/07 07:27:15;;;;;;;0.40;0.40;;;;;;;9.89;80.11;98000.44;5268517;27;20135;-79
2022/04/07 07:29:45;;;;;;;2.42;1.30;;;;;;;9.94;80.04;98006.22;5303590;27;20065;-80
2022/04/07 07:32:16;;;;;;;0.30;0.30;;;;;;;10.03;79.23;97992.50;5299701;27;20023;-80
2022/04/07 07:34:49;;;;;;;0.30;0.30;;;;;;;9.95;80.34;97986.94;5286325;27;20038;-80
2022/04/07 07:37:20;;;;;;;0.30;0.30;;;;;;;10.00;80.04;97976.16;5276450;27;20050;-79
2022/04/07 07:39:50;;;;;;;13.70;1.75;;;;;;;10.00;81.18;97957.81;5272141;27;20035;-80
2022/04/07 07:42:22;;;;;;;0.20;0.20;;;;;;;10.00;81.05;97940.31;5284769;27;20035;-80
2022/04/07 07:44:53;;;;;;;0.30;0.30;;;;;;;9.98;80.89;97934.34;5267640;27;20276;-79
2022/04/07 07:47:24;;;;;;;0.40;0.40;;;;;;;10.05;81.54;97943.44;5306461;27;20275;-79
2022/04/07 07:49:54;;;;;;;0.30;0.30;;;;;;;10.11;81.08;97938.72;5265660;27;20023;-79
2022/04/07 07:52:27;;;;;;;0.30;0.30;;;;;;;10.08;81.62;97917.03;5284013;27;20031;-81
2022/04/07 07:54:58;;;;;;;0.30;0.30;;;;;;;10.17;80.93;97919.97;5286096;27;20026;-80
2022/04/07 07:57:29;;;;;;;0.30;0.30;;;;;;;10.21;80.70;97926.66;5286056;27;20070;-79
2022/04/07 08:00:00;;;;;;;0.30;0.30;;;;;;;10.18;81.49;97919.84;5278624;27;20076;-80
2022/04/07 08:02:33;;;;;;;0.30;0.30;;;;;;;10.18;82.49;97911.97;5301346;27;20035;-80
2022/04/07 08:05:07;;;;;;;0.30;0.30;;;;;;;10.14;82.98;97884.34;5285431;27;20058;-80
2022/04/07 08:07:40;;;;;;;0.30;0.30;;;;;;;10.12;83.56;97877.53;5262740;27;20043;-80
2022/04/07 08:10:10;;;;;;;0.30;0.30;;;;;;;10.22;83.12;97870.66;5274076;27;20034;-80
2022/04/07 08:12:41;;;;;;;0.30;0.30;;;;;;;10.17;84.11;97872.78;5267024;27;20027;-80
2022/04/07 08:15:14;;;;;;;0.30;0.30;;;;;;;10.21;84.25;97853.28;5289908;27;20618;-81
2022/04/07 08:17:44;;;;;;;0.38;0.38;;;;;;;10.28;83.84;97859.78;5266877;27;20130;-80
2022/04/07 08:20:15;;;;;;;0.40;0.40;;;;;;;10.34;84.02;97848.84;5283164;27;20081;-81
2022/04/07 08:22:45;;;;;;;0.30;0.30;;;;;;;10.34;83.68;97842.75;5259003;27;20027;-81
2022/04/07 08:25:19;;;;;;;0.30;0.30;;;;;;;10.50;82.52;97837.28;5275526;27;20571;-81
2022/04/07 08:27:50;;;;;;;0.30;0.30;;;;;;;10.50;82.51;97835.47;5266337;27;20596;-80
2022/04/07 08:30:21;;;;;;;0.30;0.30;;;;;;;10.59;82.72;97841.84;5263878;27;20382;-80
2022/04/07 08:32:54;;;;;;;0.30;0.30;;;;;;;10.68;81.53;97841.19;5266934;27;20479;-81
2022/04/07 08:35:24;;;;;;;0.30;0.30;;;;;;;10.67;81.56;97823.78;5276797;27;20039;-80
2022/04/07 08:37:58;;;;;;;0.30;0.30;;;;;;;10.68;82.31;97820.19;5302135;27;20046;-80
2022/04/07 08:40:30;;;;;;;0.30;0.30;;;;;;;10.70;83.27;97844.50;5264255;27;20047;-80
2022/04/07 08:43:01;;;;;;;0.38;0.38;;;;;;;10.63;84.06;97822.31;5259846;27;20677;-80
2022/04/07 08:45:32;;;;;;;0.20;0.20;;;;;;;10.66;83.58;97810.78;5298647;27;20035;-80
2022/04/07 08:48:10;;;;;;;0.65;0.65;;;;;;;10.73;83.64;97805.91;5281318;27;20319;-80
2022/04/07 08:50:43;;;;;;;0.30;0.30;;;;;;;10.69;84.11;97798.28;5295512;27;20027;-80
2022/04/07 08:53:13;;;;;;;0.30;0.30;;;;;;;10.78;84.14;97793.28;5281373;27;20346;-81
2022/04/07 08:55:44;;;;;;;0.30;0.30;;;;;;;10.86;84.27;97796.19;5288138;27;20105;-80
2022/04/07 08:58:17;;;;;;;0.38;0.38;;;;;;;10.85;84.03;97786.63;5279009;28;20506;-80
2022/04/07 09:00:49;;;;;;;0.30;0.30;;;;;;;10.93;84.02;97776.41;5292896;27;20143;-80
2022/04/07 09:03:19;;;;;;;0.40;0.40;;;;;;;10.98;83.71;97774.25;5281621;27;20483;-81
2022/04/07 09:05:58;;;;;;;0.30;0.30;;;;;;;11.00;84.30;97793.34;5271706;27;20035;-81
2022/04/07 09:08:40;;;;;;;1.40;1.30;;;;;;;11.06;84.37;97771.06;5301568;27;20032;-80
2022/04/07 09:11:11;;;;;;;0.30;0.30;;;;;;;11.13;84.11;97771.41;5304203;27;20053;-80
2022/04/07 09:13:44;;;;;;;0.30;0.30;;;;;;;11.13;84.29;97774.03;5302205;27;20366;-80
2022/04/07 09:16:18;;;;;;;;;;;;;;;11.08;84.82;97771.75;5266935;27;20027;-80
2022/04/07 09:18:48;;;;;;;0.30;0.30;;;;;;;11.08;84.93;97778.81;5299102;27;19915;-79
2022/04/07 09:21:22;;;;;;;0.30;0.30;;;;;;;11.16;84.78;97766.75;5282123;27;20087;-81
2022/04/07 09:23:57;;;;;;;0.30;0.30;;;;;;;11.20;85.12;97746.34;5264723;27;20031;-82
2022/04/07 09:26:29;;;;;;;0.30;0.30;;;;;;;11.21;85.11;97748.03;5300317;27;20071;-82
2022/04/07 09:29:15;;;;;;;0.30;0.30;;;;;;;11.19;85.63;97760.47;5261920;27;20032;-84
2022/04/07 09:31:53;;;;;;;;;;;;;;;11.22;86.69;97777.75;5281030;27;20075;-84
2022/04/07 09:34:33;;;;;;;0.30;0.30;;;;;;;11.15;86.96;97772.97;5280941;27;19915;-82
2022/04/07 09:37:08;;;;;;;0.30;0.30;;;;;;;11.16;86.51;97766.75;5280108;27;20163;-84
2022/04/07 09:39:40;;;;;;;0.30;0.30;;;;;;;11.07;87.53;97766.63;5276217;27;20047;-82
2022/04/07 09:42:21;;;;;;;0.30;0.30;;;;;;;11.04;87.82;97762.47;5277179;28;20052;-83
2022/04/07 09:44:57;;;;;;;0.30;0.30;;;;;;;10.99;89.05;97764.59;5264388;27;20119;-85
2022/04/07 09:47:39;;;;;;;0.30;0.30;;;;;;;10.96;87.99;97767.44;5278904;27;20035;-80
2022/04/07 09:50:29;;;;;;;0.30;0.30;;;;;;;10.94;88.56;97771.97;5282667;27;20043;-82
2022/04/07 09:53:06;;;;;;;0.30;0.30;;;;;;;10.92;89.66;97784.38;5305826;27;20038;-81
2022/04/07 09:55:40;;;;;;;0.20;0.20;;;;;;;10.91;89.40;97799.28;5260695;27;20582;-83
2022/04/07 09:58:14;;;;;;;0.40;0.40;;;;;;;10.85;90.59;97812.88;5284770;27;20035;-82
2022/04/07 10:00:45;;;;;;;0.30;0.30;;;;;;;10.79;91.37;97826.41;5286645;27;20063;-86
2022/04/07 10:03:16;;;;;;;0.30;0.30;;;;;;;10.85;91.71;97833.84;5303434;27;20126;-86
2022/04/07 10:05:47;;;;;;;2.00;1.50;;;;;;;10.80;91.03;97828.09;5304413;27;20027;-79
2022/04/07 10:08:18;;;;;;;1.38;1.20;;;;;;;10.84;90.89;97840.03;5262966;27;20024;-80
2022/04/07 10:10:49;;;;;;;0.30;0.30;;;;;;;10.86;90.72;97867.81;5295354;27;20039;-79
2022/04/07 10:13:20;;;;;;;0.38;0.38;;;;;;;10.89;90.12;97868.56;5283516;27;20027;-82
2022/04/07 10:15:51;;;;;;;0.30;0.30;;;;;;;10.86;89.16;97870.44;5281798;27;20404;-81
2022/04/07 10:18:31;;;;;;;0.30;0.30;;;;;;;10.82;87.88;97862.91;5274275;27;20415;-81
2022/04/07 10:21:03;;;;;;;0.30;0.30;;;;;;;10.70;88.09;97849.75;5266838;27;20043;-84
2022/04/07 10:23:53;;;;;;;0.22;0.22;;;;;;;10.88;87.37;97857.22;5279096;27;20043;-85
2022/04/07 10:26:26;;;;;;;0.60;0.60;;;;;;;10.78;86.66;97853.63;5287109;27;20398;-83
2022/04/07 10:28:56;;;;;;;0.95;0.95;;;;;;;10.82;86.90;97855.03;5266896;27;20015;-80
2022/04/07 10:31:29;;;;;;;0.50;0.50;;;;;;;10.85;86.45;97846.97;5257429;27;20031;-80
2022/04/07 10:34:09;;;;;;;0.30;0.30;;;;;;;10.80;85.33;97849.91;5271881;27;20027;-83
2022/04/07 10:36:39;;;;;;;1.88;0.88;;;;;;;10.85;85.95;97855.66;5290187;27;20071;-85
2022/04/07 10:39:12;;;;;;;0.30;0.30;;;;;;;10.96;84.32;97865.34;5297489;27;20031;-82
2022/04/07 10:41:43;;;;;;;0.30;0.30;;;;;;;10.96;83.44;97873.22;5267623;27;20177;-81
2022/04/07 10:44:18;;;;;;;0.30;0.30;;;;;;;10.95;82.76;97876.78;5282152;27;20473;-82
2022/04/07 10:46:49;;;;;;;0.25;0.25;;;;;;;10.99;82.84;97875.63;5265360;27;20122;-82
2022/04/07 10:49:26;;;;;;;0.20;0.20;;;;;;;10.88;80.72;97877.38;5285065;27;20031;-80
2022/04/07 10:51:59;;;;;;;0.75;0.75;;;;;;;10.74;73.17;97875.75;5266208;27;20529;-81
2022/04/07 10:54:30;;;;;;;0.30;0.30;;;;;;;10.78;69.60;97877.22;5302761;27;20039;-84
2022/04/07 10:57:01;;;;;;;0.30;0.30;;;;;;;10.76;68.40;97879.09;5290795;27;20524;-85
2022/04/07 10:59:34;;;;;;;0.30;0.30;;;;;;;10.78;69.87;97883.28;5281514;27;20553;-86
2022/04/07 11:02:06;;;;;;;0.30;0.30;;;;;;;10.84;69.07;97887.25;5281505;27;20123;-84
2022/04/07 11:04:38;;;;;;;0.30;0.30;;;;;;;10.85;68.06;97891.56;5290217;27;20501;-84
2022/04/07 11:07:15;;;;;;;0.30;0.30;;;;;;;10.92;68.11;97890.16;5297289;27;20031;-84
2022/04/07 11:09:55;;;;;;;0.30;0.30;;;;;;;11.01;68.90;97894.72;5297530;27;20042;-82
2022/04/07 11:12:29;;;;;;;0.30;0.30;;;;;;;10.98;67.39;97894.94;5261833;28;20035;-83
2022/04/07 11:15:02;;;;;;;0.30;0.30;;;;;;;11.11;68.13;97900.09;5267066;27;20469;-84
2022/04/07 11:17:34;;;;;;;;;;;;;;;11.14;67.79;97888.53;5299713;27;20034;-83
2022/04/07 11:20:05;;;;;;;0.30;0.30;;;;;;;11.18;67.51;97901.31;5293707;27;19919;-85
2022/04/07 11:22:53;;;;;;;0.20;0.20;;;;;;;11.22;64.11;97896.66;5301144;27;20562;-85
2022/04/07 11:25:37;;;;;;;0.30;0.30;;;;;;;11.28;65.47;97911.94;5262841;27;20054;-82
2022/04/07 11:28:12;;;;;;;0.30;0.30;;;;;;;11.34;63.23;97914.13;5284662;27;20043;-83
2022/04/07 11:30:53;;;;;;;0.75;0.75;;;;;;;11.41;61.40;97921.53;5264791;27;20032;-82
2022/04/07 11:33:26;;;;;;;0.30;0.30;;;;;;;11.38;61.24;97927.88;5283068;27;20027;-84
2022/04/07 11:35:59;;;;;;;0.40;0.40;;;;;;;11.47;61.88;97932.44;5304599;27;20043;-81
2022/04/07 11:38:37;;;;;;;0.30;0.30;;;;;;;11.53;59.64;97920.59;5274400;27;20030;-81
2022/04/07 11:41:12;;;;;;;0.30;0.30;;;;;;;11.51;60.21;97927.78;5275912;27;20050;-82
2022/04/07 11:43:52;;;;;;;0.30;0.30;;;;;;;11.68;59.74;97938.78;5303556;27;20019;-82
2022/04/07 11:46:28;;;;;;;0.30;0.30;;;;;;;11.69;60.18;97964.13;5264778;27;20055;-81
2022/04/07 11:49:00;;;;;;;0.30;0.30;;;;;;;11.80;56.53;97964.13;5287258;27;20051;-83
2022/04/07 11:51:34;;;;;;;0.30;0.30;;;;;;;11.89;57.04;97957.34;5281814;27;20126;-81
2022/04/07 11:54:05;;;;;;;0.28;0.28;;;;;;;12.04;57.76;97952.69;5280037;27;20035;-83
2022/04/07 11:56:38;;;;;;;0.52;0.52;;;;;;;12.22;57.60;97948.66;5262354;27;20087;-83
2022/04/07 11:59:13;;;;;;;0.30;0.30;;;;;;;12.07;54.78;97953.28;5275511;27;21652;-80
2022/04/07 12:01:45;;;;;;;0.30;0.30;;;;;;;12.12;55.30;97979.22;5277279;27;20441;-82
2022/04/07 12:04:15;;;;;;;0.30;0.30;;;;;;;12.07;53.98;97974.31;5281219;27;20040;-82
2022/04/07 12:06:46;;;;;;;0.45;0.45;;;;;;;12.08;51.97;97962.03;5273450;27;20103;-83
2022/04/07 12:09:17;;;;;;;0.30;0.30;;;;;;;12.24;54.69;97978.28;5266196;27;20051;-83
2022/04/07 12:11:48;;;;;;;0.30;0.30;;;;;;;12.33;55.08;97979.34;5284886;27;20354;-82
2022/04/07 12:14:24;;;;;;;0.30;0.30;;;;;;;12.34;56.56;97972.31;5280333;27;20732;-83
2022/04/07 12:16:55;;;;;;;0.75;0.75;;;;;;;12.56;52.89;97988.06;5283251;27;20034;-80
2022/04/07 12:19:42;;;;;;;0.30;0.30;;;;;;;12.56;53.55;97995.94;5261609;27;20403;-80
2022/04/07 12:22:17;;;;;;;0.32;0.32;;;;;;;12.45;51.48;97995.94;5281786;27;20353;-81
2022/04/07 12:25:09;;;;;;;0.32;0.32;;;;;;;12.49;52.25;97992.13;5261530;27;20039;-83
2022/04/07 12:27:39;;;;;;;0.30;0.30;;;;;;;12.58;51.49;97991.41;5262328;27;20589;-82
2022/04/07 12:30:11;;;;;;;0.30;0.30;;;;;;;12.50;50.97;97993.81;5301275;27;20080;-81
2022/04/07 12:32:43;;;;;;;0.30;0.30;;;;;;;12.52;53.17;97994.50;5273111;27;20027;-81
2022/04/07 12:35:14;;;;;;;0.30;0.30;;;;;;;12.83;53.38;97988.59;5243632;22;20048;-77
2022/04/07 12:37:45;;;;;;;0.38;0.38;;;;;;;12.78;49.74;97986.34;5247550;28;20043;-78
2022/04/07 12:40:25;;;;;;;0.32;0.32;;;;;;;12.57;49.08;98000.25;5230617;28;20029;-78
2022/04/07 12:42:59;;;;;;;0.30;0.30;;;;;;;12.43;51.30;97992.63;5229870;28;20423;-78
2022/04/07 12:45:30;;;;;;;0.30;0.30;;;;;;;12.51;53.25;98006.00;5223534;28;20122;-79
2022/04/07 12:48:14;;;;;;;0.20;0.20;;;;;;;12.47;52.45;97999.31;5246962;28;20016;-80
2022/04/07 12:50:50;;;;;;;0.30;0.30;;;;;;;12.41;53.27;98007.69;5248375;28;20040;-78
2022/04/07 12:53:34;;;;;;;0.30;0.30;;;;;;;12.25;53.48;98001.00;5248733;28;20339;-79
2022/04/07 12:56:31;;;;;;;15.50;1.95;;;;;;;12.10;53.82;98007.44;5248045;28;20033;-78
2022/04/07 12:59:09;;;;;;;0.20;0.20;;;;;;;12.04;53.68;98018.41;5249733;28;20306;-78
2022/04/07 13:01:41;;;;;;;0.65;0.65;;;;;;;11.91;54.67;98018.47;5251072;28;20039;-77
2022/04/07 13:04:12;;;;;;;0.55;0.55;;;;;;;11.89;54.58;98015.13;5253243;28;20066;-79
2022/04/07 13:06:46;;;;;;;0.50;0.50;;;;;;;11.84;56.20;98022.50;5247032;28;20089;-78
2022/04/07 13:09:16;;;;;;;0.32;0.32;;;;;;;11.68;56.14;98031.53;5244623;28;20411;-79
2022/04/07 13:11:47;;;;;;;0.30;0.30;;;;;;;11.63;56.65;98025.81;5234371;28;20044;-78
2022/04/07 13:14:18;;;;;;;0.93;0.85;;;;;;;11.59;58.90;98034.84;5251571;28;20059;-79
2022/04/07 13:16:48;;;;;;;0.30;0.30;;;;;;;11.54;56.62;98048.31;5250161;28;20041;-78
2022/04/07 13:19:18;;;;;;;1.08;0.63;;;;;;;11.54;56.42;98042.25;5254588;28;20047;-78
2022/04/07 13:21:52;;;;;;;0.30;0.30;;;;;;;11.43;57.32;98066.66;5233984;28;20573;-79
2022/04/07 13:24:23;;;;;;;11.95;1.52;;;;;;;11.67;59.17;98084.19;5243406;28;20040;-77
2022/04/07 13:26:53;;;;;;;0.20;0.20;;;;;;;11.79;59.58;98078.03;5219219;28;20039;-77
2022/04/07 13:29:24;;;;;;;0.50;0.50;;;;;;;11.65;59.24;98072.00;5254672;28;20677;-78
2022/04/07 13:31:58;;;;;;;0.50;0.50;;;;;;;11.80;58.00;98069.19;5228640;28;20036;-78
2022/04/07 13:34:31;;;;;;;1.27;0.95;;;;;;;11.74;57.93;98074.91;5261828;27;20027;-78
2022/04/07 13:37:02;;;;;;;0.40;0.40;;;;;;;11.68;58.03;98083.25;5289920;27;20295;-78
2022/04/07 13:39:32;;;;;;;0.30;0.30;;;;;;;11.73;58.48;98078.47;5269184;28;20028;-78
2022/04/07 13:42:03;;;;;;;0.30;0.30;;;;;;;11.41;59.07;98074.63;5285981;27;20130;-78
2022/04/07 13:44:34;;;;;;;0.70;0.70;;;;;;;11.24;60.10;98073.25;5276697;28;20046;-78
2022/04/07 13:47:08;;;;;;;0.30;0.30;;;;;;;11.24;58.42;98075.06;5237923;28;20047;-79
2022/04/07 13:49:38;;;;;;;0.40;0.40;;;;;;;11.19;57.16;98080.63;5241844;28;20488;-78
2022/04/07 13:52:10;;;;;;;0.55;0.52;;;;;;;11.26;59.75;98087.13;5271763;28;20306;-79
2022/04/07 13:54:41;;;;;;;0.30;0.30;;;;;;;11.14;59.37;98114.22;5257909;28;20070;-78
2022/04/07 13:57:11;;;;;;;1.05;1.05;;;;;;;11.01;59.77;98164.97;5273990;28;20118;-78
2022/04/07 13:59:42;;;;;;;0.30;0.30;;;;;;;10.92;61.01;98168.22;5279172;27;20058;-80
2022/04/07 14:02:12;;;;;;;1.02;1.02;;;;;;;10.49;62.18;98129.22;5293540;27;20115;-78
2022/04/07 14:04:43;;;;;;;0.30;0.30;;;;;;;10.67;63.12;98133.19;5257533;28;20518;-78
2022/04/07 14:07:19;;;;;;;0.30;0.30;;;;;;;10.41;62.90;98142.00;5258105;28;20035;-77
2022/04/07 14:09:49;;;;;;;5.20;1.58;;;;;;;10.51;63.45;98154.38;5275814;27;20035;-78
2022/04/07 14:12:20;;;;;;;0.93;0.93;;;;;;;10.44;64.34;98158.34;5276109;28;20087;-78
2022/04/07 14:14:50;;;;;;;0.77;0.77;;;;;;;10.47;63.65;98157.31;5298447;27;20090;-79
2022/04/07 14:17:21;;;;;;;0.88;0.88;;;;;;;10.25;63.47;98158.72;5275587;28;20046;-78
2022/04/07 14:19:51;;;;;;;0.30;0.30;;;;;;;10.13;63.44;98159.53;5268514;28;20032;-78
2022/04/07 14:22:25;;;;;;;0.35;0.35;;;;;;;10.37;64.21;98178.88;5242742;28;20100;-78
2022/04/07 14:24:56;;;;;;;0.50;0.50;;;;;;;10.57;64.11;98166.22;5260127;27;20106;-78
2022/04/07 14:27:27;;;;;;;1.05;0.95;;;;;;;10.55;64.09;98153.22;5271016;27;20039;-79
2022/04/07 14:29:57;;;;;;;0.75;0.75;;;;;;;10.62;64.95;98165.91;5288299;27;20234;-78
2022/04/07 14:32:28;;;;;;;0.50;0.50;;;;;;;10.68;64.43;98168.97;5271818;28;20450;-78
2022/04/07 14:34:58;;;;;;;0.50;0.50;;;;;;;10.57;65.09;98179.34;5253752;27;20376;-78
2022/04/07 14:37:29;;;;;;;0.30;0.30;;;;;;;10.65;64.91;98178.84;5300522;27;20126;-78
2022/04/07 14:39:59;;;;;;;0.30;0.30;;;;;;;10.48;64.05;98174.72;5273672;27;20038;-78
2022/04/07 14:42:30;;;;;;;1.48;1.33;;;;;;;10.30;64.18;98177.59;5278522;27;20036;-78
2022/04/07 14:45:01;;;;;;;0.30;0.30;;;;;;;10.32;64.61;98174.88;5301459;27;20047;-78
2022/04/07 14:47:31;;;;;;;1.00;0.75;;;;;;;10.30;63.79;98177.59;5284422;27;20087;-78
2022/04/07 14:50:04;;;;;;;0.60;0.60;;;;;;;10.23;63.41;98187.66;5259750;27;20043;-79
2022/04/07 14:52:37;;;;;;;0.70;0.70;;;;;;;10.52;64.39;98187.50;5281634;27;20035;-79